createdAt,value
2022-08-18T00:02:01.877Z,19.50
2022-08-18T00:04:35.323Z,19.40
2022-08-18T00:07:02.869Z,19.30
2022-08-18T00:09:32.515Z,19.20
2022-08-18T00:12:00.699Z,19.10
2022-08-18T00:14:27.691Z,19.10
2022-08-18T00:16:54.809Z,19.20
2022-08-18T00:19:45.356Z,19.40
2022-08-18T00:22:14.766Z,19.30
2022-08-18T00:24:48.246Z,19.20
2022-08-18T00:27:37.212Z,19.40
2022-08-18T00:30:07.722Z,19.50
2022-08-18T00:32:39.513Z,19.30
2022-08-18T00:35:14.497Z,19.20
2022-08-18T00:37:42.585Z,19.10
2022-08-18T00:40:12.786Z,19.00
2022-08-18T00:42:44.152Z,19.00
2022-08-18T00:45:19.462Z,18.90
2022-08-18T00:47:46.919Z,19.00
2022-08-18T00:50:19.548Z,18.90
2022-08-18T00:52:55.449Z,18.90
2022-08-18T00:55:24.118Z,18.80
2022-08-18T00:57:54.293Z,18.80
2022-08-18T01:00:22.543Z,18.80
2022-08-18T01:02:55.900Z,18.80
2022-08-18T01:05:34.232Z,18.80
2022-08-18T01:08:01.210Z,18.80
2022-08-18T01:10:28.237Z,18.80
2022-08-18T01:12:56.949Z,18.80
2022-08-18T01:15:29.566Z,18.90
2022-08-18T01:18:24.923Z,18.90
2022-08-18T01:21:40.012Z,18.80
2022-08-18T01:24:11.491Z,18.70
2022-08-18T01:26:44.134Z,18.60
2022-08-18T01:29:18.931Z,18.60
2022-08-18T01:31:55.639Z,18.70
2022-08-18T01:34:25.703Z,18.70
2022-08-18T01:36:54.425Z,18.80
2022-08-18T01:41:17.457Z,18.50
2022-08-18T01:42:09.311Z,18.60
2022-08-18T01:44:36.665Z,18.50
2022-08-18T01:47:04.294Z,18.60
2022-08-18T01:49:31.127Z,18.60
2022-08-18T01:51:58.174Z,18.70
2022-08-18T01:54:29.861Z,18.60
2022-08-18T01:56:57.113Z,18.60
2022-08-18T01:59:23.893Z,18.50
2022-08-18T02:01:55.978Z,18.50
2022-08-18T02:04:36.911Z,18.50
2022-08-18T02:07:07.870Z,18.50
2022-08-18T02:09:37.489Z,18.40
2022-08-18T02:12:06.193Z,18.40
2022-08-18T02:14:34.581Z,18.50
2022-08-18T02:17:03.003Z,18.50
2022-08-18T02:19:44.532Z,18.50
2022-08-18T02:22:15.080Z,18.50
2022-08-18T02:24:42.280Z,18.40
2022-08-18T02:27:11.399Z,18.40
2022-08-18T02:29:38.238Z,18.40
2022-08-18T02:32:06.197Z,18.40
2022-08-18T02:34:33.702Z,18.40
2022-08-18T02:37:00.926Z,18.40
2022-08-18T02:39:28.783Z,18.50
2022-08-18T02:41:55.490Z,18.50
2022-08-18T02:44:22.594Z,18.50
2022-08-18T02:46:53.574Z,18.40
2022-08-18T02:49:20.614Z,18.30
2022-08-18T02:51:47.457Z,18.20
2022-08-18T02:54:14.656Z,18.20
2022-08-18T02:56:42.622Z,18.20
2022-08-18T02:59:14.944Z,18.10
2022-08-18T03:01:45.632Z,18.10
2022-08-18T03:04:15.499Z,18.00
2022-08-18T03:06:44.292Z,18.00
2022-08-18T03:09:14.602Z,17.90
2022-08-18T03:11:41.801Z,18.00
2022-08-18T03:14:11.580Z,18.00
2022-08-18T03:16:52.752Z,18.00
2022-08-18T03:19:23.880Z,18.00
2022-08-18T03:21:51.018Z,17.90
2022-08-18T03:24:22.770Z,17.90
2022-08-18T03:26:52.022Z,17.90
2022-08-18T03:29:19.448Z,17.80
2022-08-18T03:31:48.811Z,17.70
2022-08-18T03:34:20.035Z,17.70
2022-08-18T03:36:49.193Z,17.60
2022-08-18T03:39:16.690Z,17.60
2022-08-18T03:42:00.119Z,17.60
2022-08-18T03:44:31.771Z,17.60
2022-08-18T03:47:00.824Z,17.50
2022-08-18T03:49:27.594Z,17.50
2022-08-18T03:51:54.567Z,17.40
2022-08-18T03:54:21.696Z,17.40
2022-08-18T03:56:49.464Z,17.40
2022-08-18T03:59:19.987Z,17.40
2022-08-18T04:01:49.313Z,17.30
2022-08-18T04:04:19.962Z,17.30
2022-08-18T04:06:50.678Z,17.20
2022-08-18T04:09:18.764Z,17.30
2022-08-18T04:11:46.463Z,17.30
2022-08-18T04:14:16.013Z,17.20
2022-08-18T04:16:43.323Z,17.20
2022-08-18T04:19:13.759Z,17.20
2022-08-18T04:21:42.399Z,17.20
2022-08-18T04:24:10.697Z,17.30
2022-08-18T04:26:45.281Z,17.30
2022-08-18T04:29:14.045Z,17.30
2022-08-18T04:31:40.771Z,17.30
2022-08-18T04:34:08.256Z,17.20
2022-08-18T04:36:36.707Z,17.30
2022-08-18T04:39:07.353Z,17.30
2022-08-18T04:41:35.613Z,17.40
2022-08-18T04:44:05.712Z,17.20
2022-08-18T04:46:40.602Z,17.20
2022-08-18T04:49:09.176Z,17.10
2022-08-18T04:52:27.063Z,17.20
2022-08-18T04:54:26.635Z,17.30
2022-08-18T04:56:53.624Z,17.30
2022-08-18T04:59:20.416Z,17.40
2022-08-18T05:01:47.788Z,17.50
2022-08-18T05:04:17.683Z,17.70
2022-08-18T05:06:45.711Z,17.70
2022-08-18T05:09:16.661Z,17.70
2022-08-18T05:11:50.776Z,17.70
2022-08-18T05:14:18.768Z,17.60
2022-08-18T05:16:48.906Z,17.60
2022-08-18T05:19:23.153Z,17.60
2022-08-18T05:21:51.749Z,17.70
2022-08-18T05:24:21.116Z,17.50
2022-08-18T05:26:49.015Z,17.60
2022-08-18T05:29:18.351Z,17.80
2022-08-18T05:31:46.297Z,17.70
2022-08-18T05:34:13.508Z,17.90
2022-08-18T05:36:52.715Z,17.80
2022-08-18T05:39:19.692Z,17.80
2022-08-18T05:41:51.360Z,17.70
2022-08-18T05:44:34.619Z,17.60
2022-08-18T05:47:16.907Z,17.80
2022-08-18T05:49:45.888Z,17.70
2022-08-18T05:52:37.761Z,17.80
2022-08-18T05:55:32.840Z,17.60
2022-08-18T05:58:04.774Z,17.70
2022-08-18T06:00:33.012Z,17.60
2022-08-18T06:03:27.842Z,17.70
2022-08-18T06:06:08.309Z,17.60
2022-08-18T06:08:55.969Z,17.60
2022-08-18T06:11:23.085Z,17.80
2022-08-18T06:13:51.671Z,17.70
2022-08-18T06:16:35.994Z,17.70
2022-08-18T06:19:40.542Z,17.70
2022-08-18T06:22:07.149Z,17.80
2022-08-18T06:24:46.952Z,17.80
2022-08-18T06:27:39.885Z,17.90
2022-08-18T06:30:17.777Z,17.80
2022-08-18T06:32:56.705Z,18.00
2022-08-18T06:35:41.639Z,17.80
2022-08-18T06:38:45.525Z,17.90
2022-08-18T06:41:42.379Z,18.00
2022-08-18T06:44:17.430Z,18.20
2022-08-18T06:47:18.461Z,18.30
2022-08-18T06:49:51.552Z,18.40
2022-08-18T06:52:24.169Z,18.60
2022-08-18T06:54:52.371Z,18.80
2022-08-18T06:57:29.140Z,19.10
2022-08-18T07:00:00.678Z,19.10
2022-08-18T07:02:43.365Z,19.30
2022-08-18T07:05:23.979Z,19.30
2022-08-18T07:08:18.606Z,19.20
2022-08-18T07:10:51.766Z,19.00
2022-08-18T07:13:23.365Z,19.10
2022-08-18T07:15:50.733Z,19.40
2022-08-18T07:18:24.538Z,19.00
2022-08-18T07:21:03.020Z,19.00
2022-08-18T07:23:40.205Z,18.90
2022-08-18T07:26:15.814Z,19.40
2022-08-18T07:28:45.026Z,19.20
2022-08-18T07:31:37.035Z,19.30
2022-08-18T07:34:27.914Z,19.50
2022-08-18T07:37:28.059Z,19.70
2022-08-18T07:40:04.166Z,19.80
2022-08-18T07:43:01.691Z,19.60
2022-08-18T07:45:37.609Z,19.30
2022-08-18T07:48:15.789Z,19.00
2022-08-18T07:51:08.893Z,19.10
2022-08-18T07:53:54.686Z,18.90
2022-08-18T07:56:44.657Z,19.00
2022-08-18T07:59:38.208Z,19.40
2022-08-18T08:02:29.304Z,19.40
2022-08-18T08:05:26.178Z,19.60
2022-08-18T08:08:01.537Z,19.50
2022-08-18T08:10:51.895Z,19.40
2022-08-18T08:13:43.804Z,19.70
2022-08-18T08:16:11.300Z,19.80
2022-08-18T08:18:53.770Z,19.70
2022-08-18T08:21:24.495Z,19.70
2022-08-18T08:24:12.129Z,19.60
2022-08-18T08:26:58.924Z,19.40
2022-08-18T08:29:44.399Z,19.40
2022-08-18T08:32:24.682Z,19.20
2022-08-18T08:35:03.228Z,19.40
2022-08-18T08:37:53.891Z,19.70
2022-08-18T08:40:32.092Z,19.80
2022-08-18T08:43:12.822Z,19.80
2022-08-18T08:45:46.614Z,20.30
2022-08-18T08:48:22.485Z,20.30
2022-08-18T08:50:57.698Z,20.40
2022-08-18T08:53:30.796Z,20.90
2022-08-18T08:56:03.244Z,21.20
2022-08-18T08:58:40.867Z,20.60
2022-08-18T09:01:12.497Z,20.60
2022-08-18T09:04:10.288Z,20.70
2022-08-18T09:07:02.833Z,20.70
2022-08-18T09:09:49.232Z,21.20
2022-08-18T09:12:47.155Z,21.30
2022-08-18T09:15:24.758Z,21.20
2022-08-18T09:18:25.113Z,21.20
2022-08-18T09:21:27.218Z,21.40
2022-08-18T09:24:05.113Z,21.90
2022-08-18T09:26:39.278Z,21.90
2022-08-18T09:29:45.015Z,21.90
2022-08-18T09:32:22.643Z,22.60
2022-08-18T09:35:27.680Z,22.20
2022-08-18T09:38:38.869Z,22.40
2022-08-18T09:41:32.146Z,22.20
2022-08-18T09:44:11.956Z,23.10
2022-08-18T09:46:46.401Z,22.80
2022-08-18T09:49:26.647Z,22.70
2022-08-18T09:52:19.930Z,23.70
2022-08-18T09:54:58.748Z,24.20
2022-08-18T09:57:41.350Z,23.60
2022-08-18T10:00:12.887Z,23.60
2022-08-18T10:02:40.335Z,23.10
2022-08-18T10:05:13.102Z,23.40
2022-08-18T10:07:43.775Z,24.50
2022-08-18T10:11:00.685Z,24.20
2022-08-18T10:13:29.768Z,25.40
2022-08-18T10:16:17.791Z,24.30
2022-08-18T10:19:00.819Z,23.70
2022-08-18T10:21:50.004Z,23.60
2022-08-18T10:24:37.449Z,23.60
2022-08-18T10:27:26.987Z,24.10
2022-08-18T10:29:57.867Z,24.00
2022-08-18T10:32:41.178Z,24.30
2022-08-18T10:35:36.686Z,24.30
2022-08-18T10:38:13.805Z,24.60
2022-08-18T10:40:51.877Z,24.50
2022-08-18T10:46:29.475Z,24.40
2022-08-18T10:49:04.469Z,24.80
2022-08-18T10:52:08.531Z,25.30
2022-08-18T10:55:17.054Z,25.30
2022-08-18T10:58:30.209Z,24.90
2022-08-18T11:01:19.521Z,25.30
2022-08-18T11:06:43.372Z,25.90
2022-08-18T11:09:11.753Z,25.30
2022-08-18T11:14:58.461Z,24.20
2022-08-18T11:17:45.377Z,24.90
2022-08-18T11:23:04.223Z,25.70
2022-08-18T11:25:34.804Z,25.10
2022-08-18T11:28:03.265Z,25.60
2022-08-18T11:30:35.318Z,25.70
2022-08-18T11:33:04.645Z,25.90
2022-08-18T11:35:35.532Z,25.80
2022-08-18T11:38:12.557Z,25.60
2022-08-18T11:41:09.455Z,26.40
2022-08-18T11:43:42.200Z,26.70
2022-08-18T11:46:30.033Z,26.70
2022-08-18T11:49:00.811Z,25.70
2022-08-18T11:51:28.589Z,26.30
2022-08-18T11:54:21.862Z,26.20
2022-08-18T11:56:50.507Z,26.60
2022-08-18T11:59:53.063Z,27.10
2022-08-18T12:02:18.401Z,27.60
2022-08-18T12:04:53.442Z,26.60
2022-08-18T12:07:36.003Z,26.50
2022-08-18T12:10:21.187Z,26.30
2022-08-18T12:12:55.680Z,25.90
2022-08-18T12:15:43.719Z,26.80
2022-08-18T12:18:19.003Z,28.00
2022-08-18T12:20:59.107Z,27.50
2022-08-18T12:23:26.207Z,26.50
2022-08-18T12:25:53.230Z,26.10
2022-08-18T12:28:22.502Z,26.00
2022-08-18T12:30:57.134Z,26.60
2022-08-18T12:33:25.528Z,26.80
2022-08-18T12:35:54.145Z,27.20
2022-08-18T12:38:23.466Z,27.10
2022-08-18T12:40:51.127Z,26.60
2022-08-18T12:43:18.342Z,26.20
2022-08-18T12:45:47.448Z,26.70
2022-08-18T12:48:14.474Z,27.30
2022-08-18T12:50:54.020Z,27.30
2022-08-18T12:53:29.159Z,26.50
2022-08-18T12:56:16.218Z,26.00
2022-08-18T12:58:46.779Z,25.80
2022-08-18T13:01:13.947Z,26.50
2022-08-18T13:03:45.532Z,26.40
2022-08-18T13:06:36.884Z,26.80
2022-08-18T13:09:16.417Z,26.90
2022-08-18T13:11:52.094Z,26.90
2022-08-18T13:14:19.956Z,26.90
2022-08-18T13:16:53.853Z,26.80
2022-08-18T13:19:21.987Z,26.30
2022-08-18T13:21:49.650Z,26.40
2022-08-18T13:24:16.766Z,26.60
2022-08-18T13:26:49.513Z,26.10
2022-08-18T13:29:19.327Z,26.60
2022-08-18T13:31:55.417Z,26.80
2022-08-18T13:34:22.989Z,27.40
2022-08-18T13:36:51.505Z,27.40
2022-08-18T13:39:21.969Z,27.80
2022-08-18T13:41:52.439Z,26.80
2022-08-18T13:44:22.457Z,26.70
2022-08-18T13:46:54.697Z,26.90
2022-08-18T13:49:30.132Z,27.00
2022-08-18T13:52:00.910Z,27.00
2022-08-18T13:54:36.017Z,26.80
2022-08-18T13:57:05.282Z,26.60
2022-08-18T13:59:34.184Z,26.50
2022-08-18T14:02:08.438Z,26.50
2022-08-18T14:04:36.363Z,26.70
2022-08-18T14:07:09.633Z,27.00
2022-08-18T14:09:38.235Z,26.70
2022-08-18T14:12:15.996Z,26.70
2022-08-18T14:14:55.042Z,26.80
2022-08-18T14:17:24.347Z,26.80
2022-08-18T14:20:21.418Z,26.60
2022-08-18T14:23:13.904Z,26.30
2022-08-18T14:26:07.221Z,26.10
2022-08-18T14:28:35.095Z,26.50
2022-08-18T14:31:05.168Z,26.20
2022-08-18T14:33:51.014Z,26.40
2022-08-18T14:36:19.582Z,26.20
2022-08-18T14:38:51.484Z,27.10
2022-08-18T14:41:20.391Z,26.30
2022-08-18T14:44:12.866Z,26.20
2022-08-18T14:46:54.057Z,26.20
2022-08-18T14:49:28.802Z,26.00
2022-08-18T14:52:02.933Z,26.10
2022-08-18T14:54:33.823Z,26.00
2022-08-18T14:57:01.801Z,26.00
2022-08-18T14:59:34.612Z,25.90
2022-08-18T15:02:06.053Z,26.20
2022-08-18T15:04:38.563Z,25.90
2022-08-18T15:07:23.843Z,25.30
2022-08-18T15:09:51.384Z,25.20
2022-08-18T15:12:38.481Z,25.10
2022-08-18T15:15:08.833Z,25.10
2022-08-18T15:17:38.359Z,25.00
2022-08-18T15:20:10.709Z,25.10
2022-08-18T15:23:00.211Z,25.00
2022-08-18T15:25:37.232Z,24.80
2022-08-18T15:28:04.562Z,24.70
2022-08-18T15:30:32.686Z,24.60
2022-08-18T15:33:03.334Z,24.60
2022-08-18T15:35:31.379Z,24.50
2022-08-18T15:37:58.535Z,24.50
2022-08-18T15:40:30.777Z,24.40
2022-08-18T15:43:09.718Z,24.30
2022-08-18T15:45:43.388Z,24.20
2022-08-18T15:48:24.890Z,24.10
2022-08-18T15:50:52.680Z,24.10
2022-08-18T15:53:22.576Z,24.00
2022-08-18T15:55:50.193Z,24.00
2022-08-18T15:58:22.159Z,24.00
2022-08-18T16:00:52.305Z,23.90
2022-08-18T16:03:21.217Z,23.90
2022-08-18T16:05:53.692Z,23.90
2022-08-18T16:08:23.314Z,23.90
2022-08-18T16:10:51.078Z,23.80
2022-08-18T16:13:17.913Z,23.80
2022-08-18T16:15:48.388Z,23.80
2022-08-18T16:18:17.601Z,23.70
2022-08-18T16:20:45.387Z,23.60
2022-08-18T16:23:13.182Z,23.70
2022-08-18T16:25:42.010Z,23.60
2022-08-18T16:28:09.505Z,23.50
2022-08-18T16:30:36.869Z,23.50
2022-08-18T16:33:06.567Z,23.50
2022-08-18T16:35:34.523Z,23.50
2022-08-18T16:38:07.541Z,23.30
2022-08-18T16:40:34.833Z,23.20
2022-08-18T16:43:01.583Z,23.00
2022-08-18T16:45:29.707Z,23.00
2022-08-18T16:47:56.752Z,22.90
2022-08-18T16:50:25.292Z,22.80
2022-08-18T16:52:52.654Z,22.80
2022-08-18T16:55:20.519Z,22.70
2022-08-18T16:58:07.620Z,22.70
2022-08-18T17:00:55.324Z,22.60
2022-08-18T17:03:42.464Z,22.60
2022-08-18T17:06:14.129Z,22.50
2022-08-18T17:08:42.118Z,22.40
2022-08-18T17:11:12.879Z,22.30
2022-08-18T17:13:40.193Z,22.30
2022-08-18T17:16:08.338Z,22.20
2022-08-18T17:18:36.054Z,22.20
2022-08-18T17:21:05.891Z,22.10
2022-08-18T17:23:33.610Z,22.00
2022-08-18T17:26:02.726Z,22.00
2022-08-18T17:28:50.595Z,21.90
2022-08-18T17:31:24.324Z,21.70
2022-08-18T17:33:55.560Z,21.50
2022-08-18T17:36:33.777Z,21.30
2022-08-18T17:39:04.356Z,21.20
2022-08-18T17:41:31.205Z,21.00
2022-08-18T17:44:00.941Z,20.50
2022-08-18T17:46:33.034Z,19.90
2022-08-18T17:49:25.072Z,19.70
2022-08-18T17:51:56.174Z,19.80
2022-08-18T17:54:38.483Z,19.70
2022-08-18T17:57:12.640Z,19.50
2022-08-18T17:59:53.497Z,19.50
2022-08-18T18:02:28.765Z,19.50
2022-08-18T18:05:00.980Z,19.50
2022-08-18T18:07:33.199Z,19.50
2022-08-18T18:10:09.954Z,19.40
2022-08-18T18:12:40.189Z,19.30
2022-08-18T18:15:12.973Z,19.30
2022-08-18T18:17:42.540Z,19.20
2022-08-18T18:20:38.215Z,19.30
2022-08-18T18:23:16.226Z,19.10
2022-08-18T18:25:43.378Z,19.30
2022-08-18T18:28:28.002Z,19.40
2022-08-18T18:31:00.033Z,19.40
2022-08-18T18:33:30.709Z,19.40
2022-08-18T18:35:59.551Z,19.30
2022-08-18T18:38:26.576Z,19.20
2022-08-18T18:41:01.292Z,19.20
2022-08-18T18:43:38.754Z,19.00
2022-08-18T18:46:23.136Z,19.10
2022-08-18T18:49:01.723Z,19.00
2022-08-18T18:51:39.131Z,19.00
2022-08-18T18:54:33.333Z,18.90
2022-08-18T18:57:00.361Z,18.90
2022-08-18T19:00:10.986Z,18.90
2022-08-18T19:02:55.790Z,18.90
2022-08-18T19:05:45.029Z,18.90
2022-08-18T19:08:21.004Z,18.80
2022-08-18T19:10:59.788Z,18.70
2022-08-18T19:13:35.080Z,18.70
2022-08-18T19:16:23.894Z,18.70
2022-08-18T19:18:59.119Z,18.70
2022-08-18T19:22:04.463Z,18.80
2022-08-18T19:24:38.962Z,18.80
2022-08-18T19:27:10.956Z,18.80
2022-08-18T19:29:42.325Z,18.70
2022-08-18T19:32:16.830Z,18.70
2022-08-18T19:34:52.672Z,18.70
2022-08-18T19:37:58.429Z,18.70
2022-08-18T19:40:45.259Z,18.80
2022-08-18T19:43:49.562Z,18.70
2022-08-18T19:46:36.433Z,18.60
2022-08-18T19:49:41.705Z,18.50
2022-08-18T19:52:46.546Z,18.50
2022-08-18T19:55:13.405Z,18.40
2022-08-18T19:58:01.741Z,18.50
2022-08-18T20:00:40.838Z,18.50
2022-08-18T20:03:29.069Z,18.50
2022-08-18T20:06:32.102Z,18.40
2022-08-18T20:08:58.159Z,18.40
2022-08-18T20:12:04.039Z,18.40
2022-08-18T20:14:35.705Z,18.40
2022-08-18T20:17:17.002Z,18.40
2022-08-18T20:19:52.555Z,18.30
2022-08-18T20:22:24.393Z,18.40
2022-08-18T20:25:17.543Z,18.20
2022-08-18T20:28:01.016Z,18.20
2022-08-18T20:31:06.834Z,18.40
2022-08-18T20:33:43.348Z,18.40
2022-08-18T20:36:26.366Z,18.30
2022-08-18T20:38:58.459Z,18.30
2022-08-18T20:41:43.315Z,18.40
2022-08-18T20:44:36.592Z,18.30
2022-08-18T20:47:06.308Z,18.40
2022-08-18T20:49:51.432Z,18.40
2022-08-18T20:52:40.294Z,18.30
2022-08-18T20:55:34.859Z,18.20
2022-08-18T20:58:12.562Z,18.20
2022-08-18T21:00:44.132Z,18.30
2022-08-18T21:03:16.534Z,18.30
2022-08-18T21:05:45.246Z,18.20
2022-08-18T21:08:16.685Z,18.20
2022-08-18T21:10:58.737Z,18.20
2022-08-18T21:13:28.933Z,18.20
2022-08-18T21:15:59.301Z,18.20
2022-08-18T21:18:27.657Z,18.10
2022-08-18T21:20:57.978Z,18.10
2022-08-18T21:23:30.059Z,18.20
2022-08-18T21:26:12.368Z,18.20
2022-08-18T21:28:42.497Z,18.10
2022-08-18T21:31:42.838Z,18.20
2022-08-18T21:34:13.395Z,18.10
2022-08-18T21:36:50.916Z,18.10
2022-08-18T21:39:19.614Z,18.10
2022-08-18T21:41:55.189Z,18.20
2022-08-18T21:44:41.990Z,18.20
2022-08-18T21:47:24.021Z,18.10
2022-08-18T21:50:15.176Z,18.10
2022-08-18T21:53:01.149Z,18.10
2022-08-18T21:55:41.490Z,18.10
2022-08-18T21:58:14.343Z,18.10
2022-08-18T22:00:46.965Z,18.00
2022-08-18T22:03:26.535Z,18.00
2022-08-18T22:06:03.378Z,18.10
2022-08-18T22:08:34.308Z,17.90
2022-08-18T22:12:01.551Z,18.10
2022-08-18T22:14:26.994Z,18.00
2022-08-18T22:17:18.929Z,18.10
2022-08-18T22:19:46.043Z,18.10
2022-08-18T22:22:31.539Z,18.00
2022-08-18T22:24:59.829Z,17.90
2022-08-18T22:27:27.210Z,17.90
2022-08-18T22:30:01.887Z,17.80
2022-08-18T22:32:28.630Z,17.90
2022-08-18T22:34:55.312Z,17.90
2022-08-18T22:37:25.548Z,18.00
2022-08-18T22:40:10.113Z,17.90
2022-08-18T22:42:37.376Z,17.90
2022-08-18T22:45:13.359Z,18.00
2022-08-18T22:47:44.822Z,17.90
2022-08-18T22:50:13.074Z,17.80
2022-08-18T22:52:49.775Z,17.90
2022-08-18T22:55:20.250Z,17.90
2022-08-18T22:57:55.728Z,17.90
2022-08-18T23:00:25.220Z,17.90
2022-08-18T23:02:53.549Z,17.90
2022-08-18T23:05:20.634Z,17.90
2022-08-18T23:07:47.794Z,17.90
2022-08-18T23:10:16.566Z,17.90
2022-08-18T23:12:44.962Z,17.90
2022-08-18T23:15:12.767Z,17.90
2022-08-18T23:17:41.589Z,17.90
2022-08-18T23:20:12.395Z,17.90
2022-08-18T23:22:45.816Z,17.90
2022-08-18T23:25:13.475Z,17.90
2022-08-18T23:27:41.198Z,17.90
2022-08-18T23:30:09.186Z,17.90
2022-08-18T23:32:36.169Z,17.90
2022-08-18T23:35:03.370Z,17.90
2022-08-18T23:37:31.627Z,17.90
2022-08-18T23:39:59.135Z,17.90
2022-08-18T23:42:25.919Z,17.90
2022-08-18T23:44:52.924Z,17.80
2022-08-18T23:47:20.578Z,17.70
2022-08-18T23:49:47.639Z,17.60
2022-08-18T23:52:14.380Z,17.60
2022-08-18T23:54:41.467Z,17.50
2022-08-18T23:57:08.170Z,17.40
2022-08-18T23:59:35.190Z,17.40
